createdAt,value
2022-11-24T00:00:04.367Z,66.68
2022-11-24T00:02:35.584Z,66.44
2022-11-24T00:05:08.013Z,66.35
2022-11-24T00:07:38.496Z,66.63
2022-11-24T00:10:09.224Z,66.66
2022-11-24T00:12:39.572Z,66.47
2022-11-24T00:15:10.437Z,66.41
2022-11-24T00:17:41.287Z,66.53
2022-11-24T00:20:12.052Z,66.59
2022-11-24T00:22:42.511Z,66.46
2022-11-24T00:25:12.888Z,66.71
2022-11-24T00:27:43.367Z,66.46
2022-11-24T00:30:14.150Z,66.52
2022-11-24T00:32:44.517Z,66.40
2022-11-24T00:35:15.125Z,66.67
2022-11-24T00:37:45.715Z,66.41
2022-11-24T00:40:16.274Z,66.08
2022-11-24T00:42:46.650Z,66.06
2022-11-24T00:45:17.159Z,67.26
2022-11-24T00:47:47.597Z,66.42
2022-11-24T00:50:18.199Z,66.61
2022-11-24T00:52:48.514Z,66.42
2022-11-24T00:55:23.219Z,66.77
2022-11-24T00:57:59.261Z,66.60
2022-11-24T01:00:29.819Z,67.05
2022-11-24T01:03:03.166Z,66.22
2022-11-24T01:05:37.380Z,67.09
2022-11-24T01:08:08.341Z,66.78
2022-11-24T01:10:38.847Z,66.71
2022-11-24T01:13:09.496Z,66.77
2022-11-24T01:15:40.186Z,66.95
2022-11-24T01:18:10.686Z,66.80
2022-11-24T01:20:41.056Z,66.63
2022-11-24T01:23:11.490Z,66.51
2022-11-24T01:25:41.879Z,67.16
2022-11-24T01:28:12.322Z,66.78
2022-11-24T01:30:42.748Z,67.08
2022-11-24T01:33:13.233Z,66.83
2022-11-24T01:35:43.578Z,66.47
2022-11-24T01:38:13.968Z,66.53
2022-11-24T01:40:44.515Z,66.89
2022-11-24T01:43:20.380Z,66.69
2022-11-24T01:45:51.328Z,67.01
2022-11-24T01:48:28.256Z,66.80
2022-11-24T01:51:21.737Z,66.96
2022-11-24T01:53:57.273Z,66.47
2022-11-24T01:56:29.021Z,66.62
2022-11-24T01:59:02.988Z,66.76
2022-11-24T02:01:33.565Z,66.59
2022-11-24T02:04:07.131Z,66.76
2022-11-24T02:06:38.773Z,66.89
2022-11-24T02:09:20.169Z,67.13
2022-11-24T02:11:52.262Z,67.25
2022-11-24T02:14:24.278Z,67.25
2022-11-24T02:16:55.042Z,66.94
2022-11-24T02:19:33.610Z,66.95
2022-11-24T02:22:05.008Z,66.97
2022-11-24T02:24:45.275Z,66.89
2022-11-24T02:27:16.103Z,67.25
2022-11-24T02:29:46.962Z,66.43
2022-11-24T02:32:18.681Z,66.92
2022-11-24T02:34:49.159Z,66.76
2022-11-24T02:37:19.648Z,67.08
2022-11-24T02:39:50.017Z,67.12
2022-11-24T02:42:20.587Z,66.70
2022-11-24T02:44:57.161Z,67.03
2022-11-24T02:47:27.783Z,66.91
2022-11-24T02:49:59.464Z,66.66
2022-11-24T02:52:29.913Z,66.25
2022-11-24T02:55:00.266Z,67.46
2022-11-24T02:57:31.129Z,66.53
2022-11-24T03:00:01.618Z,66.67
2022-11-24T03:02:32.239Z,66.64
2022-11-24T03:05:02.726Z,66.71
2022-11-24T03:07:33.233Z,66.60
2022-11-24T03:10:04.577Z,66.86
2022-11-24T03:12:35.031Z,67.03
2022-11-24T03:15:06.386Z,66.45
2022-11-24T03:17:36.877Z,66.69
2022-11-24T03:20:08.050Z,67.22
2022-11-24T03:22:38.435Z,66.35
2022-11-24T03:25:09.230Z,66.08
2022-11-24T03:27:39.673Z,66.41
2022-11-24T03:30:11.211Z,66.31
2022-11-24T03:32:42.387Z,66.40
2022-11-24T03:35:13.071Z,66.84
2022-11-24T03:37:43.674Z,67.00
2022-11-24T03:40:14.246Z,66.49
2022-11-24T03:42:44.624Z,66.96
2022-11-24T03:45:45.502Z,66.71
2022-11-24T03:48:06.359Z,66.66
2022-11-24T03:50:36.759Z,66.75
2022-11-24T03:53:07.267Z,66.76
2022-11-24T03:55:37.646Z,66.45
2022-11-24T03:58:08.066Z,67.08
2022-11-24T04:00:38.426Z,66.95
2022-11-24T04:03:09.330Z,66.64
2022-11-24T04:05:39.832Z,67.15
2022-11-24T04:08:10.257Z,66.47
2022-11-24T04:10:41.127Z,66.19
2022-11-24T04:13:16.956Z,66.77
2022-11-24T04:15:47.478Z,66.65
2022-11-24T04:18:18.036Z,66.60
2022-11-24T04:20:52.515Z,66.46
2022-11-24T04:23:23.134Z,66.90
2022-11-24T04:25:53.578Z,66.89
2022-11-24T04:28:23.926Z,66.26
2022-11-24T04:30:54.357Z,66.75
2022-11-24T04:33:24.711Z,66.45
2022-11-24T04:35:58.219Z,66.24
2022-11-24T04:39:19.396Z,66.34
2022-11-24T04:41:23.198Z,66.56
2022-11-24T04:43:53.568Z,66.64
2022-11-24T04:46:24.024Z,66.58
2022-11-24T04:48:54.440Z,66.92
2022-11-24T04:51:24.888Z,66.14
2022-11-24T04:53:55.355Z,65.96
2022-11-24T04:56:25.767Z,66.24
2022-11-24T04:58:56.408Z,65.61
2022-11-24T05:01:27.467Z,66.02
2022-11-24T05:03:58.917Z,65.94
2022-11-24T05:06:29.441Z,65.92
2022-11-24T05:08:59.753Z,66.07
2022-11-24T05:11:30.086Z,65.95
2022-11-24T05:14:01.137Z,66.37
2022-11-24T05:16:31.488Z,66.24
2022-11-24T05:19:01.886Z,65.78
2022-11-24T05:21:32.277Z,65.97
2022-11-24T05:24:02.968Z,66.22
2022-11-24T05:26:33.443Z,65.34
2022-11-24T05:29:04.048Z,66.07
2022-11-24T05:31:34.438Z,65.73
2022-11-24T05:34:04.854Z,65.83
2022-11-24T05:36:53.200Z,66.04
2022-11-24T05:39:23.523Z,66.17
2022-11-24T05:41:53.891Z,65.94
2022-11-24T05:44:24.483Z,66.42
2022-11-24T05:46:54.856Z,66.41
2022-11-24T05:49:25.500Z,66.30
2022-11-24T05:51:55.818Z,66.36
2022-11-24T05:54:26.013Z,65.69
2022-11-24T05:56:56.762Z,65.71
2022-11-24T05:59:26.976Z,66.34
2022-11-24T06:01:57.125Z,66.49
2022-11-24T06:04:27.383Z,66.10
2022-11-24T06:06:57.636Z,66.36
2022-11-24T06:09:27.910Z,66.49
2022-11-24T06:11:58.096Z,65.94
2022-11-24T06:14:28.279Z,65.87
2022-11-24T06:16:58.555Z,66.13
2022-11-24T06:19:28.969Z,65.87
2022-11-24T06:21:59.501Z,65.72
2022-11-24T06:24:29.788Z,66.08
2022-11-24T06:27:00.698Z,66.21
2022-11-24T06:29:30.835Z,65.90
2022-11-24T06:32:01.097Z,65.70
2022-11-24T06:34:31.459Z,66.04
2022-11-24T06:37:01.762Z,65.94
2022-11-24T06:39:31.901Z,65.63
2022-11-24T06:42:02.057Z,66.00
2022-11-24T06:44:32.573Z,65.77
2022-11-24T06:47:03.066Z,65.47
2022-11-24T06:49:33.245Z,65.77
2022-11-24T06:52:03.405Z,65.62
2022-11-24T06:54:34.214Z,66.19
2022-11-24T06:57:04.562Z,66.20
2022-11-24T06:59:35.141Z,66.07
2022-11-24T07:02:05.225Z,65.91
2022-11-24T07:04:35.542Z,65.79
2022-11-24T07:07:05.836Z,66.20
2022-11-24T07:09:35.973Z,66.52
2022-11-24T07:12:06.525Z,66.04
2022-11-24T07:14:37.150Z,65.90
2022-11-24T07:17:07.730Z,66.04
2022-11-24T07:19:38.131Z,66.04
2022-11-24T07:22:08.442Z,66.23
2022-11-24T07:24:39.015Z,65.75
2022-11-24T07:27:10.713Z,65.84
2022-11-24T07:29:41.061Z,66.32
2022-11-24T07:32:11.693Z,66.15
2022-11-24T07:34:41.884Z,65.91
2022-11-24T07:37:12.074Z,66.26
2022-11-24T07:39:42.259Z,66.33
2022-11-24T07:42:12.640Z,65.71
2022-11-24T07:44:42.796Z,66.20
2022-11-24T07:47:12.888Z,66.07
2022-11-24T07:49:42.991Z,66.01
2022-11-24T07:52:13.067Z,66.03
2022-11-24T07:54:43.305Z,65.56
2022-11-24T07:57:13.439Z,65.90
2022-11-24T07:59:43.671Z,65.46
2022-11-24T08:02:13.766Z,65.22
2022-11-24T08:04:44.004Z,65.30
2022-11-24T08:07:14.365Z,65.22
2022-11-24T08:09:44.599Z,65.60
2022-11-24T08:12:16.653Z,64.97
2022-11-24T08:14:50.709Z,65.70
2022-11-24T08:17:23.038Z,65.69
2022-11-24T08:19:59.694Z,65.21
2022-11-24T08:22:29.852Z,65.53
2022-11-24T08:24:59.971Z,65.37
2022-11-24T08:27:30.955Z,65.24
2022-11-24T08:30:01.159Z,65.41
2022-11-24T08:32:31.358Z,65.62
2022-11-24T08:35:13.338Z,65.38
2022-11-24T08:37:44.638Z,65.44
2022-11-24T08:40:14.877Z,64.61
2022-11-24T08:42:45.130Z,65.07
2022-11-24T08:45:21.070Z,65.40
2022-11-24T08:47:56.341Z,65.14
2022-11-24T08:50:30.884Z,65.40
2022-11-24T08:53:01.047Z,65.23
2022-11-24T08:55:31.187Z,65.47
2022-11-24T08:58:01.305Z,65.08
2022-11-24T09:00:31.398Z,65.65
2022-11-24T09:03:09.433Z,65.16
2022-11-24T09:05:54.706Z,65.54
2022-11-24T09:08:24.866Z,65.57
2022-11-24T09:11:03.016Z,64.89
2022-11-24T09:13:33.749Z,65.06
2022-11-24T09:16:09.140Z,65.43
2022-11-24T09:18:39.990Z,65.25
2022-11-24T09:21:19.385Z,65.33
2022-11-24T09:23:50.824Z,65.22
2022-11-24T09:26:27.159Z,64.93
2022-11-24T09:28:58.594Z,65.13
2022-11-24T09:31:34.524Z,65.14
2022-11-24T09:34:08.109Z,64.71
2022-11-24T09:36:38.329Z,65.12
2022-11-24T09:39:08.465Z,64.87
2022-11-24T09:42:03.033Z,64.38
2022-11-24T09:45:02.086Z,64.51
2022-11-24T09:47:42.590Z,64.90
2022-11-24T09:50:21.076Z,65.28
2022-11-24T09:53:06.280Z,65.33
2022-11-24T09:55:44.859Z,64.70
2022-11-24T09:58:30.462Z,64.77
2022-11-24T10:01:00.923Z,64.87
2022-11-24T10:03:44.068Z,64.59
2022-11-24T10:06:33.160Z,64.55
2022-11-24T10:09:15.532Z,64.89
2022-11-24T10:12:22.481Z,64.80
2022-11-24T10:14:55.396Z,65.42
2022-11-24T10:17:46.980Z,64.93
2022-11-24T10:20:30.967Z,65.22
2022-11-24T10:23:23.002Z,64.49
2022-11-24T10:26:00.962Z,64.89
2022-11-24T10:28:47.210Z,64.18
2022-11-24T10:31:36.595Z,64.05
2022-11-24T10:34:21.325Z,64.95
2022-11-24T10:37:06.629Z,64.68
2022-11-24T10:39:42.533Z,64.79
2022-11-24T10:42:24.980Z,64.78
2022-11-24T10:45:04.255Z,64.80
2022-11-24T10:47:34.415Z,64.73
2022-11-24T10:50:21.628Z,64.50
2022-11-24T10:53:14.627Z,64.53
2022-11-24T10:55:56.957Z,64.46
2022-11-24T10:58:37.302Z,65.00
2022-11-24T11:01:15.056Z,64.60
2022-11-24T11:03:51.977Z,64.49
2022-11-24T11:06:30.912Z,64.14
2022-11-24T11:09:07.428Z,64.45
2022-11-24T11:11:41.850Z,64.42
2022-11-24T11:14:13.254Z,64.02
2022-11-24T11:16:53.775Z,63.92
2022-11-24T11:19:50.925Z,63.88
2022-11-24T11:22:29.052Z,63.67
2022-11-24T11:25:32.305Z,63.65
2022-11-24T11:28:31.903Z,63.45
2022-11-24T11:31:22.711Z,64.07
2022-11-24T11:34:23.241Z,63.80
2022-11-24T11:37:08.960Z,64.26
2022-11-24T11:39:48.697Z,63.34
2022-11-24T11:45:36.287Z,64.48
2022-11-24T11:48:43.360Z,63.76
2022-11-24T11:54:25.771Z,64.22
2022-11-24T11:57:42.399Z,63.79
2022-11-24T12:00:20.453Z,64.36
2022-11-24T12:03:36.483Z,63.30
2022-11-24T12:06:09.587Z,64.21
2022-11-24T12:09:18.687Z,63.97
2022-11-24T12:12:06.047Z,63.04
2022-11-24T12:14:45.333Z,63.71
2022-11-24T12:17:48.775Z,63.93
2022-11-24T12:20:33.509Z,63.88
2022-11-24T12:23:22.543Z,63.87
2022-11-24T12:25:58.421Z,64.07
2022-11-24T12:29:00.831Z,63.79
2022-11-24T12:31:46.634Z,63.63
2022-11-24T12:34:44.485Z,62.75
2022-11-24T12:37:29.920Z,63.88
2022-11-24T12:40:18.074Z,63.34
2022-11-24T12:43:18.966Z,63.18
2022-11-24T12:46:17.605Z,63.08
2022-11-24T12:49:14.667Z,63.19
2022-11-24T12:51:54.686Z,63.74
2022-11-24T12:54:26.494Z,63.67
2022-11-24T12:57:07.751Z,63.50
2022-11-24T12:59:45.395Z,63.73
2022-11-24T13:02:47.883Z,63.57
2022-11-24T13:05:26.198Z,63.77
2022-11-24T13:07:58.685Z,64.21
2022-11-24T13:10:54.862Z,64.31
2022-11-24T13:13:26.884Z,63.77
2022-11-24T13:19:00.593Z,63.81
2022-11-24T13:21:43.135Z,63.60
2022-11-24T13:27:16.074Z,64.33
2022-11-24T13:29:48.067Z,64.03
2022-11-24T13:32:21.378Z,63.96
2022-11-24T13:34:55.241Z,64.22
2022-11-24T13:37:31.116Z,64.49
2022-11-24T13:40:11.642Z,64.15
2022-11-24T13:43:01.606Z,63.90
2022-11-24T13:45:45.289Z,64.04
2022-11-24T13:48:22.589Z,64.33
2022-11-24T13:50:58.745Z,63.92
2022-11-24T13:53:40.612Z,64.53
2022-11-24T13:56:13.566Z,64.46
2022-11-24T13:58:50.069Z,64.15
2022-11-24T14:01:30.767Z,64.15
2022-11-24T14:04:33.659Z,63.97
2022-11-24T14:07:11.280Z,63.94
2022-11-24T14:09:48.411Z,63.95
2022-11-24T14:12:24.121Z,64.17
2022-11-24T14:14:57.500Z,64.12
2022-11-24T14:17:28.780Z,64.05
2022-11-24T14:19:59.045Z,64.06
2022-11-24T14:22:36.891Z,64.44
2022-11-24T14:25:30.891Z,63.98
2022-11-24T14:28:01.277Z,63.83
2022-11-24T14:30:31.483Z,64.47
2022-11-24T14:33:04.021Z,64.18
2022-11-24T14:35:36.162Z,64.47
2022-11-24T14:38:06.640Z,64.44
2022-11-24T14:40:46.793Z,64.16
2022-11-24T14:43:27.004Z,63.86
2022-11-24T14:46:18.578Z,63.85
2022-11-24T14:48:51.384Z,63.83
2022-11-24T14:51:25.012Z,64.42
2022-11-24T14:54:02.112Z,64.28
2022-11-24T14:56:33.341Z,64.03
2022-11-24T14:59:04.828Z,64.17
2022-11-24T15:01:36.373Z,64.30
2022-11-24T15:04:32.531Z,63.97
2022-11-24T15:07:27.684Z,64.42
2022-11-24T15:10:03.204Z,64.17
2022-11-24T15:12:35.998Z,64.50
2022-11-24T15:15:15.276Z,64.50
2022-11-24T15:17:51.309Z,64.66
2022-11-24T15:20:42.473Z,64.44
2022-11-24T15:23:28.266Z,64.76
2022-11-24T15:26:18.272Z,64.54
2022-11-24T15:28:50.456Z,64.38
2022-11-24T15:31:25.002Z,64.49
2022-11-24T15:33:55.352Z,64.42
2022-11-24T15:36:25.495Z,64.21
2022-11-24T15:38:55.637Z,64.38
2022-11-24T15:41:31.396Z,64.49
2022-11-24T15:44:03.372Z,64.58
2022-11-24T15:46:38.866Z,64.45
2022-11-24T15:49:09.261Z,64.99
2022-11-24T15:51:43.939Z,64.86
2022-11-24T15:54:16.197Z,64.25
2022-11-24T15:56:47.216Z,64.49
2022-11-24T15:59:21.238Z,64.82
2022-11-24T16:01:52.426Z,64.47
2022-11-24T16:04:22.716Z,65.18
2022-11-24T16:06:52.971Z,65.22
2022-11-24T16:09:23.130Z,64.58
2022-11-24T16:11:53.341Z,64.72
2022-11-24T16:14:23.573Z,64.80
2022-11-24T16:16:53.759Z,64.67
2022-11-24T16:19:23.969Z,64.45
2022-11-24T16:21:54.175Z,64.80
2022-11-24T16:24:24.342Z,64.24
2022-11-24T16:26:55.517Z,64.37
2022-11-24T16:29:25.869Z,64.55
2022-11-24T16:31:56.023Z,64.32
2022-11-24T16:34:26.285Z,64.21
2022-11-24T16:36:56.413Z,64.48
2022-11-24T16:39:26.983Z,64.45
2022-11-24T16:41:57.123Z,64.29
2022-11-24T16:44:27.356Z,64.77
2022-11-24T16:46:57.633Z,64.70
2022-11-24T16:49:27.844Z,64.93
2022-11-24T16:51:58.030Z,64.73
2022-11-24T16:54:28.223Z,64.77
2022-11-24T16:56:58.738Z,64.81
2022-11-24T16:59:29.246Z,65.14
2022-11-24T17:01:59.671Z,64.60
2022-11-24T17:04:29.849Z,65.05
2022-11-24T17:07:00.212Z,64.72
2022-11-24T17:09:30.287Z,65.02
2022-11-24T17:12:00.490Z,64.51
2022-11-24T17:14:30.608Z,64.87
2022-11-24T17:17:01.217Z,64.26
2022-11-24T17:19:32.089Z,65.09
2022-11-24T17:22:02.234Z,65.16
2022-11-24T17:24:32.462Z,65.29
2022-11-24T17:27:02.813Z,65.47
2022-11-24T17:29:32.893Z,64.80
2022-11-24T17:32:03.079Z,65.34
2022-11-24T17:34:33.591Z,65.05
2022-11-24T17:37:03.995Z,64.98
2022-11-24T17:39:34.068Z,64.79
2022-11-24T17:42:04.844Z,64.80
2022-11-24T17:44:35.251Z,64.71
2022-11-24T17:47:05.530Z,65.02
2022-11-24T17:49:35.974Z,64.87
2022-11-24T17:52:08.884Z,64.73
2022-11-24T17:54:57.352Z,65.08
2022-11-24T17:57:28.591Z,64.94
2022-11-24T17:59:58.753Z,65.40
2022-11-24T18:02:28.993Z,64.33
2022-11-24T18:04:59.217Z,65.36
2022-11-24T18:07:29.419Z,64.62
2022-11-24T18:09:59.571Z,64.95
2022-11-24T18:12:29.710Z,64.79
2022-11-24T18:15:00.160Z,65.00
2022-11-24T18:17:30.489Z,64.83
2022-11-24T18:20:00.620Z,64.88
2022-11-24T18:22:57.687Z,64.49
2022-11-24T18:25:20.901Z,65.03
2022-11-24T18:27:51.043Z,64.94
2022-11-24T18:30:21.369Z,65.33
2022-11-24T18:32:51.510Z,65.50
2022-11-24T18:35:21.666Z,65.31
2022-11-24T18:37:51.699Z,64.91
2022-11-24T18:40:22.048Z,64.76
2022-11-24T18:42:52.484Z,65.15
2022-11-24T18:45:22.582Z,65.05
2022-11-24T18:47:52.768Z,64.95
2022-11-24T18:50:23.244Z,65.13
2022-11-24T18:52:53.357Z,65.45
2022-11-24T18:55:25.992Z,64.98
2022-11-24T18:57:57.442Z,64.89
2022-11-24T19:00:27.607Z,65.26
2022-11-24T19:02:57.843Z,64.64
2022-11-24T19:05:27.979Z,64.95
2022-11-24T19:07:58.270Z,64.78
2022-11-24T19:10:28.364Z,65.37
2022-11-24T19:12:58.515Z,65.11
2022-11-24T19:15:34.244Z,65.03
2022-11-24T19:18:04.610Z,64.50
2022-11-24T19:20:35.522Z,64.88
2022-11-24T19:23:05.839Z,65.25
2022-11-24T19:25:35.941Z,65.04
2022-11-24T19:28:06.194Z,65.40
2022-11-24T19:30:36.279Z,64.95
2022-11-24T19:33:09.572Z,64.60
2022-11-24T19:35:39.749Z,64.38
2022-11-24T19:38:13.619Z,64.54
2022-11-24T19:40:45.102Z,65.02
2022-11-24T19:43:15.201Z,64.89
2022-11-24T19:45:45.413Z,64.64
2022-11-24T19:48:15.654Z,65.03
2022-11-24T19:50:46.257Z,64.43
2022-11-24T19:53:16.372Z,64.38
2022-11-24T19:55:46.596Z,64.47
2022-11-24T19:58:16.761Z,64.75
2022-11-24T20:00:46.889Z,65.12
2022-11-24T20:03:17.118Z,64.50
2022-11-24T20:05:58.610Z,65.14
2022-11-24T20:08:31.276Z,64.71
2022-11-24T20:11:07.114Z,64.90
2022-11-24T20:13:39.239Z,64.61
2022-11-24T20:16:13.349Z,64.43
2022-11-24T20:18:45.554Z,65.03
2022-11-24T20:21:18.815Z,65.30
2022-11-24T20:23:58.021Z,64.89
2022-11-24T20:26:39.318Z,65.19
2022-11-24T20:29:12.625Z,64.60
2022-11-24T20:31:48.454Z,64.62
2022-11-24T20:34:20.790Z,64.62
2022-11-24T20:36:53.367Z,64.97
2022-11-24T20:39:27.252Z,64.79
2022-11-24T20:41:57.347Z,65.04
2022-11-24T20:44:30.301Z,64.69
2022-11-24T20:47:01.425Z,64.57
2022-11-24T20:49:32.425Z,64.95
2022-11-24T20:52:02.691Z,65.07
2022-11-24T20:54:33.218Z,64.94
2022-11-24T20:57:03.693Z,65.27
2022-11-24T20:59:33.908Z,64.69
2022-11-24T21:02:04.128Z,65.27
2022-11-24T21:04:36.596Z,65.39
2022-11-24T21:07:07.956Z,65.09
2022-11-24T21:09:38.429Z,65.07
2022-11-24T21:12:08.551Z,64.98
2022-11-24T21:14:39.394Z,65.26
2022-11-24T21:17:10.365Z,65.36
2022-11-24T21:19:40.489Z,64.89
2022-11-24T21:22:10.654Z,64.90
2022-11-24T21:24:41.258Z,65.10
2022-11-24T21:27:11.495Z,65.26
2022-11-24T21:29:42.339Z,65.07
2022-11-24T21:32:12.557Z,64.73
2022-11-24T21:34:42.711Z,65.10
2022-11-24T21:37:13.663Z,65.27
2022-11-24T21:39:44.806Z,65.36
2022-11-24T21:42:15.120Z,64.86
2022-11-24T21:44:46.157Z,65.31
2022-11-24T21:47:16.471Z,64.74
2022-11-24T21:49:46.840Z,64.92
2022-11-24T21:52:17.172Z,65.07
2022-11-24T21:54:47.844Z,64.86
2022-11-24T21:57:18.123Z,64.89
2022-11-24T21:59:48.313Z,64.86
2022-11-24T22:02:18.741Z,65.51
2022-11-24T22:04:49.148Z,65.26
2022-11-24T22:07:19.456Z,64.84
2022-11-24T22:09:50.060Z,65.22
2022-11-24T22:12:20.209Z,65.30
2022-11-24T22:14:50.485Z,64.72
2022-11-24T22:17:20.980Z,64.75
2022-11-24T22:19:51.264Z,65.16
2022-11-24T22:22:21.925Z,65.32
2022-11-24T22:24:52.249Z,65.07
2022-11-24T22:27:22.603Z,65.49
2022-11-24T22:29:54.324Z,65.15
2022-11-24T22:32:24.700Z,65.09
2022-11-24T22:34:55.136Z,65.93
2022-11-24T22:37:25.265Z,65.19
2022-11-24T22:39:55.435Z,65.68
2022-11-24T22:42:26.417Z,65.51
2022-11-24T22:44:56.568Z,65.25
2022-11-24T22:47:26.720Z,64.90
2022-11-24T22:49:56.966Z,65.42
2022-11-24T22:52:27.161Z,65.25
2022-11-24T22:55:00.751Z,65.03
2022-11-24T22:57:30.950Z,65.35
2022-11-24T23:00:01.049Z,65.14
2022-11-24T23:02:31.860Z,65.51
2022-11-24T23:05:02.355Z,65.46
2022-11-24T23:07:32.539Z,65.08
2022-11-24T23:10:03.720Z,65.35
2022-11-24T23:12:33.910Z,65.48
2022-11-24T23:15:04.424Z,64.98
2022-11-24T23:17:34.650Z,65.14
2022-11-24T23:20:05.406Z,65.28
2022-11-24T23:22:35.984Z,65.06
2022-11-24T23:25:06.384Z,65.19
2022-11-24T23:27:36.617Z,65.28
2022-11-24T23:30:07.464Z,65.05
2022-11-24T23:32:37.915Z,65.14
2022-11-24T23:35:13.482Z,64.52
2022-11-24T23:38:06.612Z,65.46
2022-11-24T23:40:34.509Z,65.13
2022-11-24T23:43:04.746Z,65.35
2022-11-24T23:45:34.973Z,65.64
2022-11-24T23:48:05.495Z,65.30
2022-11-24T23:50:35.801Z,65.44
2022-11-24T23:53:05.947Z,64.94
2022-11-24T23:55:36.132Z,65.03
2022-11-24T23:58:07.371Z,65.05
